6M8 weather

Marked Tree Municipal Airport
Marked Tree, Arkansas, United States

Public forecast

Using degrees Fahrenheit for public forecast. Weather courtesy of forecast.io.

Closest aviation weather report (METAR) to Marked Tree Municipal Airport

Closest report is Jonesboro Municipal Airport, 21.5 nm (39.7 km) NW. Retrieved 2019/10/20 21:53 UTC (45 minutes ago):

KJBR 202153Z AUTO 12009KT 10SM BKN050 26/14 A2979 RMK AO2 SLP087 T02560139

Closest aviation forecast (TAF) to Marked Tree Municipal Airport

Closest forecast is Jonesboro Municipal Airport, 21.5 nm (39.7 km) NW. Retrieved 2019/10/20 18:39 UTC (4 hours ago):

TAF KJBR 201735Z 2018/2118 11008KT P6SM SCT008 BKN050 FM210700 19012G20KT P6SM VCSH BKN050 OVC150 WS020/22045KT FM211100 19011G20KT 4SM TSRA BKN025CB OVC050 WS020/22045KT TEMPO 2112/2115 1SM TSRA FM211700 29012G22KT P6SM VCSH SCT020 OVC050